createdAt,value
2022-10-02T00:20:16.119Z,6.75
2022-10-02T03:53:02.869Z,5.22
2022-10-02T04:00:08.917Z,4.57
2022-10-02T04:17:39.410Z,5.40
2022-10-02T06:52:08.594Z,5.05
2022-10-02T06:55:55.242Z,4.40
2022-10-02T07:06:48.308Z,4.40
2022-10-02T08:02:12.616Z,5.53
2022-10-02T08:21:21.913Z,4.50
2022-10-02T08:23:57.717Z,4.68
2022-10-02T08:26:35.922Z,4.85
2022-10-02T08:29:12.505Z,5.50
2022-10-02T08:31:43.862Z,5.05
2022-10-02T08:34:19.285Z,4.78
2022-10-02T08:37:30.027Z,4.55
2022-10-02T08:40:50.576Z,4.95
2022-10-02T08:44:07.997Z,3.80
2022-10-02T08:47:33.437Z,3.75
2022-10-02T08:51:01.385Z,4.70
2022-10-02T08:54:20.404Z,4.13
2022-10-02T08:57:27.549Z,3.80
2022-10-02T09:00:23.669Z,3.53
2022-10-02T09:03:55.385Z,3.80
2022-10-02T09:07:33.125Z,3.60
2022-10-02T09:10:53.080Z,4.53
2022-10-02T09:14:21.635Z,3.97
2022-10-02T09:17:17.856Z,3.63
2022-10-02T09:20:11.610Z,3.47
2022-10-02T09:23:38.856Z,4.00
2022-10-02T09:26:31.316Z,4.10
2022-10-02T09:29:37.674Z,3.60
2022-10-02T09:32:43.757Z,3.60
2022-10-02T09:35:42.446Z,4.05
2022-10-02T09:38:53.834Z,3.60
2022-10-02T09:41:57.255Z,3.58
2022-10-02T09:45:26.789Z,3.75
2022-10-02T09:48:43.276Z,3.83
2022-10-02T09:52:14.789Z,3.60
2022-10-02T10:15:56.935Z,3.38
2022-10-02T11:30:22.930Z,3.47
2022-10-02T11:34:11.000Z,3.53
2022-10-02T11:37:33.916Z,3.65
2022-10-02T11:44:27.287Z,3.47
2022-10-02T11:47:53.309Z,3.30
2022-10-02T17:58:34.139Z,3.58
